45TA weather

Spl Heliport
Houston, Texas, United States

Public forecast

Using degrees Fahrenheit for public forecast. Weather courtesy of forecast.io.

METAR (pilot weather report)

Closest report is William P Hobby Airport, 7.9 nm (14.6 km) E. Retrieved 2019/07/17 18:53 UTC (49 minutes ago):

KHOU 171853Z 17012KT 10SM SCT040 SCT250 34/24 A3004 RMK AO2 LTG DSNT N SLP176 CB DSNT N T03440239

TAF (pilot weather forecast)

Closest forecast is William P Hobby Airport, 7.9 nm (14.6 km) E. Retrieved 2019/07/17 18:24 UTC (1 hour ago):

TAF KHOU 171720Z 1718/1818 16009KT P6SM SCT030 SCT040 FM180100 16005KT P6SM FEW015 FEW020 SCT250 FM180900 17003KT P6SM SCT020 SCT250 FM181600 17008KT P6SM SCT030 SCT250